createdAt,value
2023-05-05T00:02:26.088Z,22.19
2023-05-05T00:04:53.180Z,22.68
2023-05-05T00:07:19.705Z,22.65
2023-05-05T00:09:46.140Z,22.63
2023-05-05T00:12:12.573Z,22.61
2023-05-05T00:14:38.946Z,22.29
2023-05-05T00:17:05.553Z,22.37
2023-05-05T00:19:32.197Z,22.58
2023-05-05T00:21:58.575Z,22.42
2023-05-05T00:24:24.936Z,22.59
2023-05-05T00:26:51.363Z,22.79
2023-05-05T00:29:17.759Z,22.42
2023-05-05T00:31:44.210Z,22.20
2023-05-05T00:34:11.062Z,22.38
2023-05-05T00:36:37.844Z,22.67
2023-05-05T00:39:04.476Z,22.64
2023-05-05T00:41:31.500Z,22.60
2023-05-05T00:43:57.878Z,22.14
2023-05-05T00:46:26.535Z,22.29
2023-05-05T00:48:53.641Z,22.70
2023-05-05T00:51:21.121Z,22.73
2023-05-05T00:53:48.173Z,22.02
2023-05-05T00:56:15.941Z,21.48
2023-05-05T00:58:43.139Z,21.47
2023-05-05T01:01:11.021Z,21.91
2023-05-05T01:03:38.978Z,22.32
2023-05-05T01:06:16.193Z,21.95
2023-05-05T01:09:04.274Z,21.53
2023-05-05T01:11:51.748Z,22.25
2023-05-05T01:14:23.116Z,22.23
2023-05-05T01:17:19.012Z,22.34
2023-05-05T01:19:54.604Z,22.00
2023-05-05T01:22:24.794Z,22.39
2023-05-05T01:25:14.218Z,22.59
2023-05-05T01:27:55.953Z,22.40
2023-05-05T01:30:50.524Z,22.13
2023-05-05T01:33:20.606Z,22.19
2023-05-05T01:35:50.569Z,21.89
2023-05-05T01:38:26.841Z,21.79
2023-05-05T01:41:02.339Z,21.68
2023-05-05T01:43:31.248Z,21.51
2023-05-05T01:45:59.938Z,21.98
2023-05-05T01:48:26.400Z,21.43
2023-05-05T01:50:53.244Z,21.94
2023-05-05T01:53:20.336Z,21.96
2023-05-05T01:55:47.862Z,21.80
2023-05-05T01:58:14.784Z,22.01
2023-05-05T02:00:41.752Z,22.14
2023-05-05T02:03:09.364Z,21.97
2023-05-05T02:05:36.705Z,21.77
2023-05-05T02:08:04.570Z,21.47
2023-05-05T02:10:31.124Z,21.46
2023-05-05T02:12:59.253Z,21.70
2023-05-05T02:15:27.799Z,21.40
2023-05-05T02:17:54.500Z,21.52
2023-05-05T02:20:22.437Z,21.66
2023-05-05T02:22:49.054Z,21.54
2023-05-05T02:25:17.642Z,21.45
2023-05-05T02:27:45.946Z,21.42
2023-05-05T02:30:15.640Z,21.37
2023-05-05T02:32:49.702Z,21.77
2023-05-05T02:35:21.878Z,21.66
2023-05-05T02:37:51.383Z,21.43
2023-05-05T02:40:20.078Z,21.66
2023-05-05T02:42:48.019Z,21.86
2023-05-05T02:45:18.560Z,21.71
2023-05-05T02:47:45.002Z,21.76
2023-05-05T02:50:11.921Z,21.29
2023-05-05T02:52:38.515Z,21.58
2023-05-05T02:55:05.986Z,21.17
2023-05-05T02:57:38.816Z,21.25
2023-05-05T03:00:16.845Z,21.35
2023-05-05T03:02:58.358Z,21.34
2023-05-05T03:05:28.979Z,21.14
2023-05-05T03:08:03.917Z,21.19
2023-05-05T03:10:35.229Z,21.21
2023-05-05T03:13:02.722Z,21.36
2023-05-05T03:15:32.585Z,21.25
2023-05-05T03:17:59.502Z,21.58
2023-05-05T03:20:26.272Z,21.02
2023-05-05T03:22:52.825Z,20.81
2023-05-05T03:25:19.205Z,20.83
2023-05-05T03:27:45.612Z,21.08
2023-05-05T03:30:12.663Z,21.15
2023-05-05T03:32:39.102Z,21.14
2023-05-05T03:35:05.964Z,20.66
2023-05-05T03:37:32.417Z,20.77
2023-05-05T03:39:58.821Z,20.26
2023-05-05T03:42:25.261Z,20.85
2023-05-05T03:44:53.367Z,21.04
2023-05-05T03:47:19.765Z,21.08
2023-05-05T03:49:46.174Z,21.05
2023-05-05T03:52:14.855Z,20.59
2023-05-05T03:54:42.466Z,20.88
2023-05-05T03:57:08.920Z,20.99
2023-05-05T03:59:35.625Z,20.59
2023-05-05T04:02:02.200Z,20.67
2023-05-05T04:04:28.585Z,19.89
2023-05-05T04:06:55.018Z,20.65
2023-05-05T04:09:21.379Z,21.08
2023-05-05T04:11:47.750Z,21.05
2023-05-05T04:14:14.059Z,20.83
2023-05-05T04:16:40.338Z,21.36
2023-05-05T04:19:06.672Z,21.00
2023-05-05T04:21:32.949Z,21.38
2023-05-05T04:23:59.351Z,21.51
2023-05-05T04:26:25.700Z,21.13
2023-05-05T04:28:52.025Z,20.97
2023-05-05T04:31:18.392Z,21.19
2023-05-05T04:33:44.890Z,21.52
2023-05-05T04:36:11.453Z,21.71
2023-05-05T04:38:37.825Z,22.10
2023-05-05T04:41:06.143Z,21.27
2023-05-05T04:43:32.480Z,21.65
2023-05-05T04:45:58.771Z,21.49
2023-05-05T04:48:25.065Z,21.38
2023-05-05T04:50:51.416Z,21.76
2023-05-05T04:53:17.938Z,21.46
2023-05-05T04:55:44.210Z,21.53
2023-05-05T04:58:10.494Z,21.97
2023-05-05T05:00:39.586Z,21.72
2023-05-05T05:03:06.375Z,21.86
2023-05-05T05:05:32.714Z,21.77
2023-05-05T05:07:59.042Z,21.38
2023-05-05T05:10:25.420Z,21.57
2023-05-05T05:12:51.712Z,22.14
2023-05-05T05:15:18.107Z,21.86
2023-05-05T05:17:44.462Z,21.35
2023-05-05T05:20:11.285Z,21.84
2023-05-05T05:22:38.818Z,22.11
2023-05-05T05:25:05.823Z,22.15
2023-05-05T05:27:32.155Z,21.83
2023-05-05T05:29:58.513Z,21.63
2023-05-05T05:32:24.792Z,22.08
2023-05-05T05:34:51.285Z,21.86
2023-05-05T05:37:17.581Z,22.36
2023-05-05T05:39:43.917Z,21.97
2023-05-05T05:42:10.222Z,21.72
2023-05-05T05:44:36.528Z,22.17
2023-05-05T05:47:02.842Z,22.69
2023-05-05T05:49:29.211Z,22.76
2023-05-05T05:51:55.513Z,23.12
2023-05-05T05:54:21.808Z,23.73
2023-05-05T05:56:48.130Z,24.26
2023-05-05T05:59:14.485Z,24.01
2023-05-05T06:01:40.785Z,23.71
2023-05-05T06:04:07.305Z,23.15
2023-05-05T06:06:34.201Z,23.44
2023-05-05T06:09:00.488Z,23.37
2023-05-05T06:11:26.876Z,23.34
2023-05-05T06:13:53.195Z,23.70
2023-05-05T06:16:19.507Z,23.60
2023-05-05T06:18:45.820Z,23.53
2023-05-05T06:21:13.292Z,23.56
2023-05-05T06:23:39.847Z,23.33
2023-05-05T06:26:06.142Z,23.60
2023-05-05T06:28:32.498Z,23.99
2023-05-05T06:30:58.850Z,23.84
2023-05-05T06:33:25.195Z,24.57
2023-05-05T06:35:51.963Z,23.95
2023-05-05T06:38:18.300Z,23.81
2023-05-05T06:40:44.619Z,23.65
2023-05-05T06:43:11.145Z,24.15
2023-05-05T06:45:37.456Z,24.23
2023-05-05T06:48:04.035Z,24.29
2023-05-05T06:50:30.359Z,24.37
2023-05-05T06:52:56.643Z,24.47
2023-05-05T06:55:23.538Z,24.42
2023-05-05T06:57:49.829Z,24.04
2023-05-05T07:00:17.494Z,24.39
2023-05-05T07:02:44.152Z,24.94
2023-05-05T07:05:10.462Z,24.97
2023-05-05T07:07:37.065Z,24.67
2023-05-05T07:10:03.376Z,22.61
2023-05-05T07:12:31.033Z,23.29
2023-05-05T07:14:57.347Z,23.87
2023-05-05T07:17:23.670Z,24.58
2023-05-05T07:19:51.309Z,24.97
2023-05-05T07:22:17.698Z,25.14
2023-05-05T07:24:44.002Z,24.82
2023-05-05T07:27:10.559Z,24.80
2023-05-05T07:29:36.832Z,24.66
2023-05-05T07:32:03.145Z,24.74
2023-05-05T07:34:29.758Z,24.56
2023-05-05T07:36:56.394Z,24.01
2023-05-05T07:39:22.785Z,24.33
2023-05-05T07:41:49.177Z,24.19
2023-05-05T07:44:15.477Z,24.42
2023-05-05T07:46:41.826Z,24.63
2023-05-05T07:49:08.199Z,24.47
2023-05-05T07:51:34.972Z,24.64
2023-05-05T07:54:01.383Z,24.64
2023-05-05T07:56:27.916Z,24.41
2023-05-05T07:58:54.515Z,24.12
2023-05-05T08:01:20.984Z,24.30
2023-05-05T08:03:47.426Z,24.35
2023-05-05T08:06:15.901Z,24.20
2023-05-05T08:08:42.197Z,24.50
2023-05-05T08:11:08.571Z,24.68
2023-05-05T08:13:35.093Z,24.72
2023-05-05T08:16:01.496Z,24.87
2023-05-05T08:18:27.842Z,25.09
2023-05-05T08:20:54.700Z,25.14
2023-05-05T08:23:21.651Z,24.70
2023-05-05T08:25:47.941Z,25.36
2023-05-05T08:28:14.270Z,25.51
2023-05-05T08:30:40.672Z,26.06
2023-05-05T08:33:07.013Z,26.15
2023-05-05T08:35:33.361Z,25.94
2023-05-05T08:37:59.664Z,25.23
2023-05-05T08:40:29.545Z,26.17
2023-05-05T08:42:56.268Z,26.69
2023-05-05T08:45:22.571Z,26.23
2023-05-05T08:47:49.071Z,26.40
2023-05-05T08:50:15.904Z,25.94
2023-05-05T08:52:44.382Z,26.07
2023-05-05T08:55:29.602Z,26.03
2023-05-05T08:57:57.264Z,26.16
2023-05-05T09:00:24.119Z,26.40
2023-05-05T09:02:50.586Z,26.69
2023-05-05T09:05:17.409Z,25.97
2023-05-05T09:07:44.116Z,26.08
2023-05-05T09:10:11.166Z,26.09
2023-05-05T09:12:40.346Z,25.80
2023-05-05T09:15:13.566Z,25.70
2023-05-05T09:17:40.104Z,25.94
2023-05-05T09:20:07.670Z,25.69
2023-05-05T09:22:35.339Z,25.68
2023-05-05T09:25:01.936Z,25.81
2023-05-05T09:27:28.256Z,26.05
2023-05-05T09:29:54.753Z,26.10
2023-05-05T09:32:21.097Z,26.65
2023-05-05T09:34:57.855Z,26.61
2023-05-05T09:37:27.958Z,26.55
2023-05-05T09:39:54.906Z,26.51
2023-05-05T09:42:21.204Z,26.48
2023-05-05T09:44:47.926Z,26.23
2023-05-05T09:47:25.964Z,27.27
2023-05-05T09:50:01.805Z,27.92
2023-05-05T09:52:28.155Z,27.98
2023-05-05T09:54:56.234Z,28.40
2023-05-05T09:57:29.407Z,28.38
2023-05-05T09:59:59.741Z,28.28
2023-05-05T10:02:32.818Z,28.31
2023-05-05T10:05:08.320Z,28.51
2023-05-05T10:07:35.175Z,28.23
2023-05-05T10:10:03.264Z,27.34
2023-05-05T10:12:29.533Z,28.22
2023-05-05T10:14:56.210Z,28.35
2023-05-05T10:17:22.902Z,27.70
2023-05-05T10:19:52.528Z,28.30
2023-05-05T10:22:19.127Z,28.84
2023-05-05T10:25:05.772Z,28.86
2023-05-05T10:27:34.277Z,28.93
2023-05-05T10:30:03.650Z,27.66
2023-05-05T10:32:56.890Z,28.22
2023-05-05T10:35:24.253Z,28.53
2023-05-05T10:37:50.727Z,28.71
2023-05-05T10:40:17.847Z,28.58
2023-05-05T10:42:44.280Z,28.87
2023-05-05T10:45:10.713Z,28.41
2023-05-05T10:47:37.155Z,27.96
2023-05-05T10:50:10.024Z,28.23
2023-05-05T10:52:39.208Z,29.28
2023-05-05T10:55:08.568Z,28.80
2023-05-05T10:57:36.828Z,29.37
2023-05-05T11:00:04.267Z,29.66
2023-05-05T11:02:31.314Z,29.98
2023-05-05T11:05:07.274Z,30.22
2023-05-05T11:07:34.433Z,30.13
2023-05-05T11:10:11.116Z,30.57
2023-05-05T11:13:10.466Z,30.04
2023-05-05T11:15:38.072Z,29.78
2023-05-05T11:18:36.160Z,30.13
2023-05-05T11:21:08.753Z,29.71
2023-05-05T11:23:35.168Z,29.72
2023-05-05T11:26:01.763Z,29.17
2023-05-05T11:28:32.426Z,30.23
2023-05-05T11:31:01.889Z,29.48
2023-05-05T11:33:29.717Z,29.60
2023-05-05T11:35:57.082Z,29.90
2023-05-05T11:38:39.047Z,30.73
2023-05-05T11:41:31.830Z,31.19
2023-05-05T11:44:14.819Z,31.09
2023-05-05T11:46:50.344Z,31.18
2023-05-05T11:49:31.202Z,31.04
2023-05-05T11:51:58.532Z,30.82
2023-05-05T11:54:25.445Z,30.31
2023-05-05T11:56:57.199Z,30.63
2023-05-05T11:59:23.650Z,30.56
2023-05-05T12:01:50.255Z,31.17
2023-05-05T12:04:16.970Z,31.77
2023-05-05T12:06:46.443Z,31.36
2023-05-05T12:09:19.998Z,31.82
2023-05-05T12:11:52.947Z,31.27
2023-05-05T12:14:19.908Z,31.80
2023-05-05T12:17:08.652Z,31.51
2023-05-05T12:19:35.598Z,31.91
2023-05-05T12:22:03.381Z,32.10
2023-05-05T12:24:32.705Z,31.64
2023-05-05T12:27:09.253Z,32.26
2023-05-05T12:29:35.687Z,32.23
2023-05-05T12:32:02.170Z,32.18
2023-05-05T12:34:28.739Z,31.75
2023-05-05T12:36:55.299Z,31.04
2023-05-05T12:39:22.356Z,32.17
2023-05-05T12:41:49.121Z,32.27
2023-05-05T12:44:15.543Z,32.04
2023-05-05T12:46:48.670Z,31.17
2023-05-05T12:49:15.161Z,30.89
2023-05-05T12:51:55.325Z,31.05
2023-05-05T12:54:24.320Z,31.23
2023-05-05T12:56:51.216Z,32.06
2023-05-05T12:59:24.023Z,32.26
2023-05-05T13:01:55.483Z,32.64
2023-05-05T13:04:26.662Z,32.72
2023-05-05T13:07:13.583Z,33.40
2023-05-05T13:09:40.406Z,32.97
2023-05-05T13:12:08.565Z,32.12
2023-05-05T13:14:35.165Z,32.44
2023-05-05T13:17:01.649Z,31.92
2023-05-05T13:19:28.118Z,32.67
2023-05-05T13:21:55.419Z,32.80
2023-05-05T13:24:31.659Z,33.25
2023-05-05T13:27:09.407Z,31.92
2023-05-05T13:29:35.885Z,32.64
2023-05-05T13:32:02.216Z,32.58
2023-05-05T13:34:28.573Z,32.51
2023-05-05T13:36:54.947Z,32.42
2023-05-05T13:39:21.403Z,32.94
2023-05-05T13:41:47.757Z,33.74
2023-05-05T13:44:14.341Z,32.90
2023-05-05T13:46:41.522Z,33.24
2023-05-05T13:49:08.026Z,33.50
2023-05-05T13:51:34.842Z,33.46
2023-05-05T13:54:01.937Z,33.90
2023-05-05T13:56:28.500Z,32.88
2023-05-05T13:58:54.919Z,33.22
2023-05-05T14:01:21.513Z,32.75
2023-05-05T14:03:48.293Z,32.62
2023-05-05T14:06:15.042Z,32.55
2023-05-05T14:08:41.917Z,33.11
2023-05-05T14:11:08.400Z,32.03
2023-05-05T14:13:34.849Z,32.50
2023-05-05T14:16:01.356Z,32.54
2023-05-05T14:18:28.335Z,32.46
2023-05-05T14:20:54.783Z,32.81
2023-05-05T14:23:21.362Z,32.75
2023-05-05T14:25:47.864Z,32.81
2023-05-05T14:28:14.238Z,33.05
2023-05-05T14:30:40.866Z,32.96
2023-05-05T14:33:07.384Z,32.82
2023-05-05T14:35:33.900Z,32.79
2023-05-05T14:38:00.329Z,32.37
2023-05-05T14:40:26.731Z,32.85
2023-05-05T14:42:53.240Z,32.93
2023-05-05T14:45:19.665Z,32.60
2023-05-05T14:47:46.142Z,32.87
2023-05-05T14:50:14.042Z,33.40
2023-05-05T14:52:40.651Z,33.80
2023-05-05T14:55:08.060Z,32.35
2023-05-05T14:57:34.708Z,32.83
2023-05-05T15:00:01.141Z,33.40
2023-05-05T15:02:27.617Z,33.02
2023-05-05T15:04:54.067Z,33.50
2023-05-05T15:07:22.045Z,33.52
2023-05-05T15:09:48.450Z,33.28
2023-05-05T15:12:14.880Z,33.39
2023-05-05T15:14:41.419Z,33.11
2023-05-05T15:17:07.875Z,33.01
2023-05-05T15:19:34.438Z,32.62
2023-05-05T15:22:00.983Z,32.41
2023-05-05T15:24:27.463Z,31.90
2023-05-05T15:26:53.940Z,32.48
2023-05-05T15:29:20.388Z,31.68
2023-05-05T15:31:46.943Z,31.29
2023-05-05T15:34:13.392Z,31.61
2023-05-05T15:36:39.914Z,31.28
2023-05-05T15:39:06.478Z,31.67
2023-05-05T15:41:34.333Z,30.90
2023-05-05T15:44:02.119Z,31.07
2023-05-05T15:46:31.776Z,30.89
2023-05-05T15:48:58.206Z,29.37
2023-05-05T15:51:24.623Z,28.89
2023-05-05T15:53:52.359Z,28.83
2023-05-05T15:56:19.216Z,29.85
2023-05-05T15:58:45.674Z,29.80
2023-05-05T16:01:12.123Z,29.14
2023-05-05T16:03:38.615Z,29.20
2023-05-05T16:06:05.126Z,29.00
2023-05-05T16:08:32.090Z,29.20
2023-05-05T16:10:58.474Z,28.95
2023-05-05T16:13:24.872Z,28.57
2023-05-05T16:15:51.304Z,29.68
2023-05-05T16:18:17.935Z,29.26
2023-05-05T16:20:44.655Z,29.43
2023-05-05T16:23:11.078Z,29.71
2023-05-05T16:25:37.674Z,29.49
2023-05-05T16:28:04.349Z,29.37
2023-05-05T16:30:30.749Z,29.36
2023-05-05T16:32:57.268Z,29.34
2023-05-05T16:35:23.785Z,29.68
2023-05-05T16:37:50.215Z,29.64
2023-05-05T16:40:16.663Z,29.50
2023-05-05T16:42:44.478Z,29.33
2023-05-05T16:45:11.529Z,29.35
2023-05-05T16:47:38.297Z,29.17
2023-05-05T16:50:05.243Z,28.99
2023-05-05T16:52:31.868Z,28.67
2023-05-05T16:54:58.266Z,28.69
2023-05-05T16:57:24.711Z,28.28
2023-05-05T16:59:51.463Z,27.59
2023-05-05T17:02:17.888Z,27.07
2023-05-05T17:04:44.278Z,27.10
2023-05-05T17:07:10.727Z,27.50
2023-05-05T17:09:37.133Z,27.48
2023-05-05T17:12:04.564Z,27.48
2023-05-05T17:14:31.130Z,27.62
2023-05-05T17:16:57.576Z,27.62
2023-05-05T17:19:24.035Z,27.27
2023-05-05T17:21:50.469Z,27.44
2023-05-05T17:24:16.901Z,26.73
2023-05-05T17:26:43.291Z,27.33
2023-05-05T17:29:11.575Z,27.13
2023-05-05T17:31:39.576Z,26.49
2023-05-05T17:34:06.038Z,27.19
2023-05-05T17:36:33.489Z,27.06
2023-05-05T17:39:00.165Z,27.22
2023-05-05T17:41:26.997Z,27.18
2023-05-05T17:43:53.754Z,27.31
2023-05-05T17:46:20.265Z,27.05
2023-05-05T17:48:46.937Z,26.76
2023-05-05T17:51:13.379Z,27.08
2023-05-05T17:53:40.178Z,27.02
2023-05-05T17:56:08.721Z,27.06
2023-05-05T17:58:35.533Z,27.00
2023-05-05T18:01:01.985Z,27.21
2023-05-05T18:03:28.540Z,27.08
2023-05-05T18:05:55.217Z,26.80
2023-05-05T18:08:21.637Z,27.07
2023-05-05T18:10:48.187Z,26.53
2023-05-05T18:13:14.675Z,26.54
2023-05-05T18:15:41.188Z,26.16
2023-05-05T18:18:07.709Z,26.69
2023-05-05T18:20:34.204Z,26.31
2023-05-05T18:23:00.654Z,26.29
2023-05-05T18:25:27.095Z,26.06
2023-05-05T18:27:53.510Z,25.81
2023-05-05T18:30:20.070Z,25.76
2023-05-05T18:32:46.507Z,25.70
2023-05-05T18:35:13.086Z,25.43
2023-05-05T18:37:39.512Z,26.26
2023-05-05T18:40:06.976Z,26.28
2023-05-05T18:42:33.396Z,26.45
2023-05-05T18:45:00.036Z,26.56
2023-05-05T18:47:26.489Z,26.52
2023-05-05T18:49:52.911Z,26.46
2023-05-05T18:52:19.407Z,26.32
2023-05-05T18:54:46.202Z,26.43
2023-05-05T18:57:12.577Z,26.14
2023-05-05T18:59:38.993Z,26.51
2023-05-05T19:02:06.539Z,26.25
2023-05-05T19:04:36.410Z,26.30
2023-05-05T19:07:02.902Z,26.23
2023-05-05T19:09:29.420Z,26.37
2023-05-05T19:11:56.166Z,26.73
2023-05-05T19:14:22.922Z,26.51
2023-05-05T19:16:49.428Z,26.79
2023-05-05T19:19:15.900Z,26.65
2023-05-05T19:21:42.582Z,26.83
2023-05-05T19:24:09.234Z,26.61
2023-05-05T19:26:35.768Z,26.28
2023-05-05T19:29:02.405Z,26.33
2023-05-05T19:31:30.698Z,26.41
2023-05-05T19:34:02.309Z,26.61
2023-05-05T19:36:29.940Z,26.30
2023-05-05T19:38:56.341Z,26.41
2023-05-05T19:41:23.115Z,26.57
2023-05-05T19:43:50.035Z,26.30
2023-05-05T19:46:17.276Z,26.61
2023-05-05T19:48:44.042Z,26.59
2023-05-05T19:51:10.733Z,26.51
2023-05-05T19:53:37.167Z,26.63
2023-05-05T19:56:04.792Z,26.15
2023-05-05T19:58:31.386Z,26.29
2023-05-05T20:00:57.836Z,26.32
2023-05-05T20:03:24.361Z,26.11
2023-05-05T20:05:50.956Z,26.07
2023-05-05T20:08:17.329Z,26.06
2023-05-05T20:10:43.748Z,26.04
2023-05-05T20:13:10.167Z,26.10
2023-05-05T20:15:37.070Z,26.18
2023-05-05T20:18:03.610Z,26.22
2023-05-05T20:20:30.198Z,25.92
2023-05-05T20:22:56.825Z,25.99
2023-05-05T20:25:23.269Z,26.40
2023-05-05T20:27:49.714Z,26.58
2023-05-05T20:30:16.158Z,26.55
2023-05-05T20:32:42.622Z,25.71
2023-05-05T20:35:09.382Z,25.76
2023-05-05T20:37:35.799Z,25.69
2023-05-05T20:40:02.395Z,26.11
2023-05-05T20:42:29.660Z,25.91
2023-05-05T20:44:56.359Z,26.04
2023-05-05T20:47:23.078Z,25.76
2023-05-05T20:49:49.468Z,26.01
2023-05-05T20:52:15.940Z,25.95
2023-05-05T20:54:42.323Z,25.94
2023-05-05T20:57:08.753Z,26.09
2023-05-05T20:59:35.207Z,25.85
2023-05-05T21:02:01.670Z,26.01
2023-05-05T21:04:28.186Z,26.00
2023-05-05T21:06:54.575Z,26.23
2023-05-05T21:09:23.668Z,25.78
2023-05-05T21:11:50.145Z,25.83
2023-05-05T21:14:16.521Z,26.01
2023-05-05T21:16:43.004Z,25.93
2023-05-05T21:19:09.415Z,25.88
2023-05-05T21:21:35.807Z,26.04
2023-05-05T21:24:02.275Z,25.83
2023-05-05T21:26:28.750Z,25.84
2023-05-05T21:28:55.223Z,25.91
2023-05-05T21:31:22.782Z,25.70
2023-05-05T21:33:49.552Z,25.59
2023-05-05T21:36:17.505Z,25.97
2023-05-05T21:38:44.207Z,25.60
2023-05-05T21:41:10.590Z,25.75
2023-05-05T21:43:37.034Z,25.58
2023-05-05T21:46:04.903Z,25.57
2023-05-05T21:48:31.419Z,25.80
2023-05-05T21:50:57.835Z,26.09
2023-05-05T21:53:24.244Z,25.95
2023-05-05T21:55:50.931Z,26.09
2023-05-05T21:58:17.392Z,25.85
2023-05-05T22:00:44.043Z,25.79
2023-05-05T22:03:10.640Z,25.82
2023-05-05T22:05:37.182Z,25.75
2023-05-05T22:08:03.719Z,26.15
2023-05-05T22:10:30.109Z,26.23
2023-05-05T22:12:56.899Z,26.21
2023-05-05T22:15:25.414Z,26.20
2023-05-05T22:17:54.113Z,26.16
2023-05-05T22:20:21.655Z,26.12
2023-05-05T22:22:48.226Z,26.27
2023-05-05T22:25:14.636Z,26.29
2023-05-05T22:27:41.037Z,26.23
2023-05-05T22:30:08.276Z,26.21
2023-05-05T22:32:34.701Z,25.90
2023-05-05T22:35:01.378Z,25.87
2023-05-05T22:37:28.030Z,25.80
2023-05-05T22:39:54.456Z,25.83
2023-05-05T22:42:20.877Z,25.88
2023-05-05T22:44:47.266Z,25.96
2023-05-05T22:47:13.679Z,26.00
2023-05-05T22:49:40.118Z,26.05
2023-05-05T22:52:06.550Z,26.00
2023-05-05T22:54:32.957Z,26.13
2023-05-05T22:56:59.430Z,26.10
2023-05-05T22:59:25.838Z,26.02
2023-05-05T23:01:52.269Z,25.90
2023-05-05T23:04:18.677Z,26.00
2023-05-05T23:06:45.388Z,25.93
2023-05-05T23:09:11.830Z,26.02
2023-05-05T23:11:38.265Z,26.20
2023-05-05T23:14:04.689Z,26.16
2023-05-05T23:16:31.127Z,26.09
2023-05-05T23:18:57.537Z,25.97
2023-05-05T23:21:23.964Z,25.66
2023-05-05T23:23:50.484Z,25.98
2023-05-05T23:26:16.868Z,25.77
2023-05-05T23:28:43.317Z,25.59
2023-05-05T23:31:09.786Z,25.61
2023-05-05T23:33:36.224Z,25.57
2023-05-05T23:36:02.621Z,25.62
2023-05-05T23:38:29.157Z,25.79
2023-05-05T23:40:55.644Z,25.76
2023-05-05T23:43:22.095Z,25.64
2023-05-05T23:45:48.539Z,25.57
2023-05-05T23:48:14.946Z,25.52
2023-05-05T23:50:41.405Z,25.73
2023-05-05T23:53:08.417Z,25.51
2023-05-05T23:55:34.784Z,25.27
2023-05-05T23:58:01.265Z,25.46
